EGVA

RAF Fairford Airport

Fairford, United Kingdom
METAR EGVA 181236Z AUTO 17017G29KT 9999 -RA SCT025 BKN039 OVC060 10/05 A2964 RMK AO2 RAB36 SLP041 $
Observed Flight Rules
Dec-18 @ 12:36 UTC (32 minutes ago) Visual Flight Rules
Wind Visibility Clouds Conditions
170° at 17 knots
 Gusting to 29 knots
10,000+ meters
  • Scattered at 2,500' AGL
  • Broken at 3,900' AGL
  • Overcast at 6,000' AGL
  • Light Rain
Temperatures Readings
Current 10°C / 50°F
Dewpoint 5°C / 41°F
Humidity 71%
Altimeter 29.64" Hg
Pressure 1004.1 hPa
Elevation 87
METAR EGVA 181236Z AUTO 17017G29KT 9999 -RA SCT025 BKN039 OVC060 10/05 A2964 RMK AO2 RAB36 SLP041 $
Observed Flight Rules
Dec-18 @ 12:36 UTC
(32 minutes ago)
VFR
Wind Visibility
170° at 17 knots
 Gusting to 29 knots
10,000+ meters
Clouds
  • Scattered at 2,500' AGL
  • Broken at 3,900' AGL
  • Overcast at 6,000' AGL
Conditions
  • Light Rain
Temperature Dewpoint
10°C / 50°F 5°C / 41°F
Humidity Altimeter Pressure
71% 29.64" Hg 1004.1 hPa